Search for airport 
image banner adimage banner adimage banner ad
image banner ad

L53 - Lodi Airpark

Located in Lodi, United States

ICAO - L53, IATA -

Data provided by Airmate  

General information

Coordinates: N38°5'3" W121°18'59"
Elevation is 25 feet MSL.
Magnetic variation is 16° East
View others Airports in California

Operational data

Special qualification required
Current time UTC:
Current local time:
Weather at : KSCK - Stockton Metropolitan ( 22 km )
METAR: KSCK 240855Z AUTO 35008KT 10SM CLR 16/13 A2994 RMK AO2 SLP137 T01560128 50002
TAF: KSCK 240520Z 2406/2506 30010KT P6SM SKC FM250000 29012KT P6SM SKC
View NOTAMs / SUP AIP / TFR affecting this airport [VIEW]
Communications frequencies: [VIEW]

Runways:

RWY identifierQFULength (ft)Width (ft)SurfaceLDA (ft)
07187522ASPH
25187522ASPH

Airport contact information

Address: Lodi United States

Satellite view of L53